createdAt,value
2023-10-05T00:17:40.897Z,8.70
2023-10-05T00:20:15.232Z,6.85
2023-10-05T00:22:42.010Z,5.88
2023-10-05T00:25:11.457Z,6.90
2023-10-05T00:27:38.685Z,6.60
2023-10-05T00:45:59.712Z,5.93
2023-10-05T00:49:05.182Z,7.63
2023-10-05T00:51:35.344Z,7.78
2023-10-05T00:54:10.568Z,5.40
2023-10-05T00:56:39.982Z,6.22
2023-10-05T00:59:08.096Z,6.43
2023-10-05T01:16:50.066Z,5.90
2023-10-05T01:19:18.641Z,6.03
2023-10-05T01:21:45.284Z,5.47
2023-10-05T01:24:14.548Z,6.05
2023-10-05T01:26:42.190Z,6.88
2023-10-05T01:29:08.847Z,6.70
2023-10-05T01:46:50.182Z,5.72
2023-10-05T01:49:18.142Z,6.10
2023-10-05T01:51:44.958Z,7.18
2023-10-05T01:54:17.825Z,6.32
2023-10-05T01:56:45.985Z,5.88
2023-10-05T01:59:14.202Z,6.65
2023-10-05T02:17:10.760Z,8.50
2023-10-05T02:19:42.342Z,5.90
2023-10-05T02:22:12.641Z,6.53
2023-10-05T02:24:42.594Z,7.20
2023-10-05T02:27:13.203Z,6.38
2023-10-05T02:29:44.542Z,6.47
2023-10-05T02:46:48.471Z,6.03
2023-10-05T02:49:25.309Z,5.82
2023-10-05T02:51:55.863Z,7.13
2023-10-05T02:54:25.940Z,6.65
2023-10-05T02:56:55.432Z,5.60
2023-10-05T02:59:27.631Z,6.85
2023-10-05T03:16:32.515Z,5.72
2023-10-05T03:19:01.655Z,6.40
2023-10-05T03:21:29.219Z,5.45
2023-10-05T03:23:55.833Z,5.87
2023-10-05T03:26:22.613Z,6.72
2023-10-05T03:28:50.176Z,5.50
2023-10-05T03:45:58.962Z,5.10
2023-10-05T03:48:27.981Z,6.60
2023-10-05T03:50:55.768Z,6.97
2023-10-05T03:53:22.495Z,8.00
2023-10-05T03:55:49.988Z,9.32
2023-10-05T03:58:20.132Z,7.88
2023-10-05T04:18:17.385Z,7.17
2023-10-05T04:28:53.285Z,7.00
2023-10-05T04:48:56.298Z,6.37
2023-10-05T04:51:24.430Z,6.63
2023-10-05T04:53:55.313Z,8.45
2023-10-05T04:56:40.275Z,5.82
2023-10-05T04:59:12.289Z,6.43
2023-10-05T05:01:59.475Z,6.63
2023-10-05T05:04:36.120Z,7.07
2023-10-05T05:07:08.724Z,6.95
2023-10-05T05:09:39.566Z,6.50
2023-10-05T05:12:17.204Z,6.60
2023-10-05T05:14:51.346Z,6.40
2023-10-05T05:17:20.647Z,7.38
2023-10-05T05:19:48.046Z,7.15
2023-10-05T05:22:15.586Z,6.28
2023-10-05T05:24:42.565Z,6.97
2023-10-05T05:27:20.981Z,8.77
2023-10-05T05:29:48.736Z,7.38
2023-10-05T05:32:15.611Z,9.90
2023-10-05T05:34:44.400Z,7.60
2023-10-05T05:37:29.559Z,7.60
2023-10-05T05:39:58.892Z,7.57
2023-10-05T05:42:31.070Z,8.85
2023-10-05T05:44:57.772Z,6.50
2023-10-05T05:47:24.533Z,9.23
2023-10-05T05:49:51.648Z,8.50
2023-10-05T05:52:18.841Z,7.73
2023-10-05T05:54:48.720Z,7.65
2023-10-05T05:57:21.903Z,6.85
2023-10-05T05:59:48.729Z,11.70
2023-10-05T06:02:15.594Z,8.80
2023-10-05T06:04:43.002Z,8.17
2023-10-05T06:07:14.386Z,10.02
2023-10-05T06:09:47.993Z,8.75
2023-10-05T06:12:16.517Z,8.13
2023-10-05T06:14:43.904Z,6.57
2023-10-05T06:17:11.709Z,6.60
2023-10-05T06:19:38.772Z,7.70
2023-10-05T06:22:09.104Z,7.45
2023-10-05T06:24:43.448Z,7.50
2023-10-05T06:27:10.389Z,7.57
2023-10-05T06:29:37.251Z,7.67
2023-10-05T06:32:05.942Z,8.35
2023-10-05T06:34:32.863Z,9.25
2023-10-05T06:36:59.659Z,12.68
2023-10-05T06:39:28.725Z,8.85
2023-10-05T06:41:55.875Z,9.10
2023-10-05T06:44:25.815Z,7.97
2023-10-05T06:46:54.598Z,12.23
2023-10-05T06:49:23.985Z,6.65
2023-10-05T06:51:51.043Z,8.48
2023-10-05T06:54:18.739Z,8.93
2023-10-05T06:56:50.680Z,10.30
2023-10-05T06:59:17.555Z,8.73
2023-10-05T07:01:44.329Z,7.53
2023-10-05T07:04:13.466Z,7.47
2023-10-05T07:06:40.586Z,8.60
2023-10-05T07:09:07.517Z,7.05
2023-10-05T07:11:34.489Z,8.02
2023-10-05T07:14:01.581Z,7.30
2023-10-05T07:16:30.386Z,6.53
2023-10-05T07:18:57.238Z,8.70
2023-10-05T07:21:24.469Z,8.20
2023-10-05T07:23:51.116Z,5.65
2023-10-05T07:26:17.934Z,7.50
2023-10-05T07:28:45.047Z,9.15
2023-10-05T07:31:12.204Z,6.33
2023-10-05T07:33:39.227Z,9.73
2023-10-05T07:36:06.706Z,6.15
2023-10-05T07:38:33.831Z,6.45
2023-10-05T07:41:04.161Z,5.65
2023-10-05T07:43:33.176Z,6.03
2023-10-05T07:46:02.018Z,6.32
2023-10-05T07:48:29.468Z,7.65
2023-10-05T07:50:56.727Z,6.20
2023-10-05T07:53:23.752Z,6.90
2023-10-05T07:55:51.418Z,7.03
2023-10-05T07:58:18.380Z,7.38
2023-10-05T08:00:46.946Z,4.78
2023-10-05T08:03:16.101Z,7.38
2023-10-05T08:05:42.954Z,7.28
2023-10-05T08:08:11.627Z,6.00
2023-10-05T08:10:40.042Z,7.30
2023-10-05T08:13:07.192Z,5.28
2023-10-05T08:15:35.778Z,6.97
2023-10-05T08:18:03.049Z,6.20
2023-10-05T08:20:30.527Z,8.10
2023-10-05T08:22:58.166Z,10.27
2023-10-05T08:25:26.010Z,5.93
2023-10-05T08:27:53.649Z,5.85
2023-10-05T08:30:20.736Z,6.88
2023-10-05T08:32:49.787Z,4.93
2023-10-05T08:35:20.043Z,5.65
2023-10-05T08:37:54.663Z,6.30
2023-10-05T08:40:36.965Z,5.78
2023-10-05T08:43:17.699Z,6.28
2023-10-05T08:45:48.061Z,5.47
2023-10-05T08:48:36.842Z,5.65
2023-10-05T08:51:13.538Z,8.35
2023-10-05T08:53:50.039Z,5.07
2023-10-05T08:56:18.096Z,5.70
2023-10-05T08:58:49.884Z,5.23
2023-10-05T09:01:25.063Z,5.50
2023-10-05T09:03:56.800Z,6.90
2023-10-05T09:06:25.540Z,5.60
2023-10-05T09:08:54.518Z,6.38
2023-10-05T09:11:32.810Z,7.23
2023-10-05T09:14:14.917Z,6.80
2023-10-05T09:16:43.652Z,5.32
2023-10-05T09:19:24.384Z,6.18
2023-10-05T09:21:52.210Z,5.35
2023-10-05T09:24:23.403Z,6.53
2023-10-05T09:26:58.246Z,4.85
2023-10-05T09:29:34.173Z,7.80
2023-10-05T09:32:01.117Z,8.73
2023-10-05T09:34:50.873Z,5.43
2023-10-05T09:37:19.792Z,6.33
2023-10-05T09:39:56.029Z,6.78
2023-10-05T09:42:26.496Z,7.75
2023-10-05T09:45:08.021Z,5.50
2023-10-05T09:47:36.948Z,7.65
2023-10-05T09:50:11.293Z,4.50
2023-10-05T09:52:44.373Z,4.30
2023-10-05T09:55:14.566Z,5.45
2023-10-05T09:57:42.920Z,6.93
2023-10-05T10:00:31.012Z,7.10
2023-10-05T10:03:01.310Z,5.80
2023-10-05T10:05:37.402Z,5.85
2023-10-05T10:08:13.980Z,4.78
2023-10-05T10:11:03.225Z,5.82
2023-10-05T10:13:38.257Z,5.30
2023-10-05T10:16:24.437Z,5.27
2023-10-05T10:19:05.461Z,5.75
2023-10-05T10:21:47.392Z,5.78
2023-10-05T10:24:21.420Z,5.65
2023-10-05T10:27:18.855Z,6.40
2023-10-05T10:29:48.416Z,6.57
2023-10-05T10:32:23.597Z,5.80
2023-10-05T10:35:10.892Z,4.97
2023-10-05T10:37:41.103Z,5.18
2023-10-05T10:40:21.485Z,7.35
2023-10-05T10:42:56.228Z,5.00
2023-10-05T10:45:29.579Z,4.72
2023-10-05T10:47:57.800Z,5.47
2023-10-05T10:50:30.190Z,5.72
2023-10-05T10:52:57.929Z,5.28
2023-10-05T10:55:34.003Z,5.27
2023-10-05T10:58:05.760Z,6.95
2023-10-05T11:00:41.744Z,5.03
2023-10-05T11:03:13.708Z,5.95
2023-10-05T11:05:42.010Z,6.70
2023-10-05T11:08:10.887Z,6.07
2023-10-05T11:10:38.366Z,6.78
2023-10-05T11:13:15.594Z,6.30
2023-10-05T11:15:59.957Z,5.97
2023-10-05T11:18:42.296Z,9.85
2023-10-05T11:21:18.109Z,5.60
2023-10-05T11:23:45.710Z,6.93
2023-10-05T11:26:19.359Z,7.43
2023-10-05T11:28:54.263Z,5.55
2023-10-05T11:31:48.078Z,5.63
2023-10-05T11:35:12.849Z,4.77
2023-10-05T11:37:13.317Z,7.00
2023-10-05T11:39:41.173Z,8.45
2023-10-05T11:42:12.081Z,6.75
2023-10-05T11:44:43.158Z,8.45
2023-10-05T11:47:24.173Z,7.40
2023-10-05T11:49:51.986Z,8.05
2023-10-05T11:52:18.881Z,7.07
2023-10-05T11:54:45.804Z,7.75
2023-10-05T11:57:12.545Z,7.30
2023-10-05T11:59:40.211Z,10.57
2023-10-05T12:02:10.066Z,11.00
2023-10-05T12:04:41.083Z,9.15
2023-10-05T12:07:09.389Z,11.45
2023-10-05T12:09:37.800Z,7.47
2023-10-05T12:12:04.870Z,12.57
2023-10-05T12:14:31.611Z,10.60
2023-10-05T12:16:58.658Z,9.63
2023-10-05T12:19:34.556Z,9.15
2023-10-05T12:22:07.399Z,9.80
2023-10-05T12:24:36.732Z,10.10
2023-10-05T12:27:14.407Z,10.25
2023-10-05T12:29:43.775Z,10.98
2023-10-05T12:32:14.693Z,9.60
2023-10-05T12:34:49.215Z,10.43
2023-10-05T12:37:19.050Z,10.33
2023-10-05T12:39:48.971Z,9.57
2023-10-05T12:42:15.721Z,8.75
2023-10-05T12:44:42.528Z,9.15
2023-10-05T12:47:09.635Z,11.00
2023-10-05T12:49:36.658Z,9.23
2023-10-05T12:52:03.652Z,9.25
2023-10-05T12:54:30.485Z,9.65
2023-10-05T12:57:13.610Z,6.53
2023-10-05T12:59:45.170Z,10.23
2023-10-05T13:02:18.158Z,9.93
2023-10-05T13:04:45.519Z,9.90
2023-10-05T13:07:18.141Z,7.65
2023-10-05T13:09:45.288Z,10.95
2023-10-05T13:12:15.683Z,7.78
2023-10-05T13:14:42.337Z,10.10
2023-10-05T13:17:13.709Z,8.07
2023-10-05T13:19:40.969Z,8.45
2023-10-05T13:22:07.906Z,9.23
2023-10-05T13:24:35.381Z,9.68
2023-10-05T13:27:02.803Z,9.80
2023-10-05T13:29:29.716Z,7.88
2023-10-05T13:31:57.423Z,6.85
2023-10-05T13:34:28.819Z,9.00
2023-10-05T13:36:56.142Z,8.60
2023-10-05T13:39:23.060Z,7.87
2023-10-05T13:42:01.396Z,9.23
2023-10-05T13:44:29.200Z,6.68
2023-10-05T13:46:57.084Z,9.23
2023-10-05T13:49:29.838Z,9.95
2023-10-05T13:51:58.470Z,8.00
2023-10-05T13:54:25.158Z,11.63
2023-10-05T13:56:52.778Z,8.02
2023-10-05T13:59:22.405Z,9.77
2023-10-05T14:01:54.083Z,6.93
2023-10-05T14:04:22.092Z,7.47
2023-10-05T14:06:50.206Z,7.43
2023-10-05T14:09:17.518Z,5.70
2023-10-05T14:11:44.711Z,8.27
2023-10-05T14:14:12.702Z,10.57
2023-10-05T14:16:50.432Z,12.00
2023-10-05T14:19:19.094Z,8.10
2023-10-05T14:21:46.235Z,9.27
2023-10-05T14:24:14.453Z,11.90
2023-10-05T14:26:45.919Z,18.45
2023-10-05T14:29:13.685Z,19.53
2023-10-05T14:31:40.627Z,26.92
2023-10-05T14:34:10.370Z,39.35
2023-10-05T14:36:37.289Z,39.20
2023-10-05T14:39:22.050Z,47.08
2023-10-05T14:41:56.099Z,55.07
2023-10-05T14:44:24.343Z,59.13
2023-10-05T14:46:52.678Z,63.80
2023-10-05T14:49:22.822Z,65.07
2023-10-05T14:51:53.629Z,63.40
2023-10-05T14:54:23.187Z,59.37
2023-10-05T14:56:50.736Z,66.32
2023-10-05T14:59:17.973Z,72.25
2023-10-05T15:01:47.020Z,74.88
2023-10-05T15:04:14.625Z,73.38
2023-10-05T15:06:41.432Z,78.83
2023-10-05T15:09:08.280Z,83.78
2023-10-05T15:11:35.382Z,73.57
2023-10-05T15:14:02.163Z,78.82
2023-10-05T15:16:29.111Z,73.50
2023-10-05T15:18:56.069Z,77.27
2023-10-05T15:21:24.022Z,73.28
2023-10-05T15:23:50.670Z,72.32
2023-10-05T15:26:18.394Z,64.00
2023-10-05T15:28:45.281Z,70.57
2023-10-05T15:31:12.384Z,67.90
2023-10-05T15:33:39.350Z,64.40
2023-10-05T15:36:06.476Z,66.55
2023-10-05T15:38:35.216Z,60.90
2023-10-05T15:41:05.281Z,65.97
2023-10-05T15:43:33.083Z,58.73
2023-10-05T15:46:01.504Z,55.90
2023-10-05T15:48:28.748Z,58.15
2023-10-05T15:50:57.327Z,56.65
2023-10-05T15:53:24.262Z,61.50
2023-10-05T15:55:53.091Z,47.03
2023-10-05T15:58:20.205Z,30.33
2023-10-05T16:00:46.987Z,30.02
2023-10-05T16:03:15.589Z,24.17
2023-10-05T16:05:44.190Z,30.20
2023-10-05T16:08:13.106Z,23.00
2023-10-05T16:10:40.606Z,56.33
2023-10-05T16:13:12.125Z,26.25
2023-10-05T16:15:40.596Z,17.25
2023-10-05T16:18:12.638Z,17.83
2023-10-05T16:20:42.108Z,13.83
2023-10-05T16:23:11.932Z,13.43
2023-10-05T16:25:40.925Z,14.93
2023-10-05T16:28:09.109Z,12.32
2023-10-05T16:30:36.938Z,12.60
2023-10-05T16:33:06.526Z,13.27
2023-10-05T16:35:34.508Z,10.93
2023-10-05T16:38:01.365Z,13.60
2023-10-05T16:40:30.359Z,13.38
2023-10-05T16:42:59.146Z,10.38
2023-10-05T16:45:26.680Z,12.50
2023-10-05T16:47:58.219Z,11.88
2023-10-05T16:50:27.316Z,15.32
2023-10-05T16:52:55.415Z,12.32
2023-10-05T16:55:22.873Z,13.02
2023-10-05T16:57:52.329Z,16.87
2023-10-05T17:00:24.276Z,10.55
2023-10-05T17:02:53.027Z,14.75
2023-10-05T17:05:23.563Z,11.55
2023-10-05T17:07:57.664Z,11.50
2023-10-05T17:10:25.435Z,11.47
2023-10-05T17:12:53.036Z,10.93
2023-10-05T17:15:25.727Z,12.77
2023-10-05T17:17:54.712Z,10.15
2023-10-05T17:20:22.956Z,17.20
2023-10-05T17:22:50.979Z,7.40
2023-10-05T17:25:18.486Z,13.55
2023-10-05T17:27:45.604Z,13.52
2023-10-05T17:30:15.173Z,12.60
2023-10-05T17:32:48.068Z,9.65
2023-10-05T17:35:23.068Z,14.23
2023-10-05T17:37:52.034Z,10.10
2023-10-05T17:40:20.260Z,13.38
2023-10-05T17:42:47.293Z,11.65
2023-10-05T17:45:14.025Z,12.05
2023-10-05T17:47:40.854Z,9.43
2023-10-05T17:50:09.304Z,10.00
2023-10-05T17:52:36.175Z,8.98
2023-10-05T17:55:03.046Z,14.18
2023-10-05T17:57:29.873Z,10.35
2023-10-05T17:59:56.597Z,9.60
2023-10-05T18:02:23.617Z,9.38
2023-10-05T18:04:50.502Z,11.40
2023-10-05T18:07:18.471Z,10.60
2023-10-05T18:09:45.293Z,9.30
2023-10-05T18:12:14.207Z,8.17
2023-10-05T18:14:41.133Z,10.13
2023-10-05T18:17:09.486Z,13.07
2023-10-05T18:19:37.767Z,13.05
2023-10-05T18:22:05.374Z,15.82
2023-10-05T18:24:32.192Z,10.53
2023-10-05T18:26:58.852Z,12.90
2023-10-05T18:29:25.812Z,8.80
2023-10-05T18:31:52.739Z,8.70
2023-10-05T18:34:19.487Z,8.43
2023-10-05T18:36:46.182Z,8.90
2023-10-05T18:39:17.115Z,10.55
2023-10-05T18:41:43.906Z,9.65
2023-10-05T18:44:10.789Z,9.35
2023-10-05T18:46:37.978Z,8.75
2023-10-05T18:49:08.757Z,7.80
2023-10-05T18:51:37.726Z,9.38
2023-10-05T18:54:04.913Z,7.38
2023-10-05T18:56:32.108Z,10.60
2023-10-05T18:59:01.351Z,8.80
2023-10-05T19:01:28.163Z,8.03
2023-10-05T19:03:54.850Z,8.73
2023-10-05T19:06:21.845Z,7.95
2023-10-05T19:08:48.785Z,6.28
2023-10-05T19:11:17.119Z,7.78
2023-10-05T19:13:45.064Z,7.43
2023-10-05T19:16:12.554Z,7.43
2023-10-05T19:18:39.724Z,7.93
2023-10-05T19:21:12.139Z,6.45
2023-10-05T19:23:39.737Z,8.38
2023-10-05T19:26:06.650Z,6.60
2023-10-05T19:28:33.800Z,9.85
2023-10-05T19:31:02.717Z,7.22
2023-10-05T19:33:29.732Z,7.05
2023-10-05T19:35:56.398Z,8.30
2023-10-05T19:38:23.557Z,7.40
2023-10-05T19:40:50.575Z,7.22
2023-10-05T19:43:17.416Z,6.47
2023-10-05T19:45:44.219Z,5.20
2023-10-05T19:48:11.995Z,5.88
2023-10-05T19:50:40.253Z,5.57
2023-10-05T19:53:07.366Z,7.93
2023-10-05T19:55:34.466Z,7.82
2023-10-05T19:58:01.453Z,7.70
2023-10-05T20:00:28.710Z,10.50
2023-10-05T20:02:55.960Z,10.57
2023-10-05T20:05:24.729Z,7.30
2023-10-05T20:07:57.695Z,8.90
2023-10-05T20:10:30.437Z,11.27
2023-10-05T20:12:57.163Z,9.32
2023-10-05T20:15:24.018Z,9.83
2023-10-05T20:17:51.114Z,8.60
2023-10-05T20:20:18.848Z,9.48
2023-10-05T20:22:45.650Z,8.88
2023-10-05T20:25:12.625Z,9.13
2023-10-05T20:27:39.579Z,9.23
2023-10-05T20:30:12.926Z,9.18
2023-10-05T20:32:40.177Z,8.77
2023-10-05T20:35:08.537Z,6.53
2023-10-05T20:37:35.174Z,8.05
2023-10-05T20:40:03.174Z,7.07
2023-10-05T20:42:29.959Z,9.20
2023-10-05T20:44:56.688Z,10.30
2023-10-05T20:47:23.580Z,7.30
2023-10-05T20:49:50.297Z,7.25
2023-10-05T20:52:17.043Z,6.87
2023-10-05T20:54:43.757Z,7.90
2023-10-05T20:57:10.439Z,9.05
2023-10-05T20:59:37.110Z,8.60
2023-10-05T21:02:04.195Z,6.38
2023-10-05T21:04:35.022Z,5.70
2023-10-05T21:07:02.498Z,6.30
2023-10-05T21:09:29.458Z,6.97
2023-10-05T21:11:56.475Z,8.05
2023-10-05T21:14:23.867Z,7.47
2023-10-05T21:16:51.551Z,7.57
2023-10-05T21:19:18.547Z,6.38
2023-10-05T21:21:45.783Z,7.50
2023-10-05T21:24:12.568Z,10.10
2023-10-05T21:26:40.124Z,6.07
2023-10-05T21:29:08.089Z,6.30
2023-10-05T21:31:35.403Z,5.45
2023-10-05T21:34:02.874Z,6.63
2023-10-05T21:36:30.116Z,6.55
2023-10-05T21:38:57.192Z,6.18
2023-10-05T21:41:24.050Z,4.87
2023-10-05T21:43:50.951Z,5.63
2023-10-05T21:46:19.593Z,5.63
2023-10-05T21:48:46.817Z,5.10
2023-10-05T21:51:14.845Z,6.47
2023-10-05T21:53:42.449Z,7.43
2023-10-05T21:56:10.207Z,5.57
2023-10-05T21:58:36.896Z,5.60
2023-10-05T22:01:04.362Z,5.45
2023-10-05T22:03:31.245Z,4.32
2023-10-05T22:05:58.149Z,5.93
2023-10-05T22:08:25.306Z,4.97
2023-10-05T22:10:52.172Z,4.18
2023-10-05T22:13:19.023Z,4.28
2023-10-05T22:15:45.947Z,5.38
2023-10-05T22:18:13.184Z,4.50
2023-10-05T22:20:41.607Z,6.05
2023-10-05T22:23:10.310Z,5.35
2023-10-05T22:25:39.057Z,5.00
2023-10-05T22:28:07.459Z,5.60
2023-10-05T22:30:35.521Z,4.60
2023-10-05T22:33:02.494Z,4.10
2023-10-05T22:35:29.201Z,5.50
2023-10-05T22:37:55.939Z,4.70
2023-10-05T22:40:22.804Z,5.43
2023-10-05T22:42:49.468Z,5.83
2023-10-05T22:45:16.090Z,5.97
2023-10-05T22:47:42.798Z,4.25
2023-10-05T22:50:09.797Z,4.28
2023-10-05T22:52:37.205Z,3.97
2023-10-05T22:55:04.726Z,6.93
2023-10-05T22:57:31.581Z,6.97
2023-10-05T22:59:58.296Z,5.82
2023-10-05T23:17:40.144Z,6.30
2023-10-05T23:20:25.218Z,8.38
2023-10-05T23:22:53.288Z,6.50
2023-10-05T23:25:20.851Z,8.02
2023-10-05T23:27:49.516Z,6.22
2023-10-05T23:48:56.544Z,6.15
2023-10-05T23:51:23.356Z,9.50
2023-10-05T23:53:50.037Z,9.18
2023-10-05T23:56:17.940Z,6.00
2023-10-05T23:58:46.387Z,5.35
